Terminal Aerodrome Forecast
Issued by NWS

Home | Current Version | Previous Version | Text Only | Print | Product List | Glossary On
Versions: 1 2 3 4 5 6 7 8 9 10 11 12 13 14
000
FTUS41 KBTV 261736
TAFPBG
TAF
KPBG 261736Z 2618/2718 15010G18KT P6SM SCT040
     FM262100 16009G15KT P6SM BKN045 BKN100
     FM270200 18005KT P6SM VCSH SCT035 OVC060
     FM270600 17004KT P6SM -SHRA SCT030 OVC060
     FM271100 17009KT P6SM VCSH SCT025 OVC045
     FM271600 21008KT P6SM SCT030 BKN060=

USA.gov is the U.S. government's official web portal to all federal, state and local government web resources and services.